createdAt,value
2022-08-04T00:00:33.000Z,66.80
2022-08-04T00:03:20.030Z,66.60
2022-08-04T00:06:23.163Z,66.70
2022-08-04T00:08:58.293Z,67.10
2022-08-04T00:11:30.749Z,66.90
2022-08-04T00:14:07.993Z,66.90
2022-08-04T00:16:39.087Z,67.70
2022-08-04T00:19:30.253Z,68.40
2022-08-04T00:22:10.548Z,68.00
2022-08-04T00:24:38.757Z,67.80
2022-08-04T00:27:07.947Z,68.10
2022-08-04T00:29:35.870Z,68.10
2022-08-04T00:32:03.843Z,68.00
2022-08-04T00:34:32.203Z,68.20
2022-08-04T00:36:59.323Z,69.10
2022-08-04T00:39:27.002Z,69.40
2022-08-04T00:42:15.506Z,69.80
2022-08-04T00:46:09.509Z,69.90
2022-08-04T00:48:57.335Z,70.70
2022-08-04T00:52:31.450Z,70.50
2022-08-04T00:55:29.370Z,71.00
2022-08-04T00:58:42.865Z,71.00
2022-08-04T01:01:42.171Z,70.90
2022-08-04T01:04:35.001Z,70.90
2022-08-04T01:07:42.514Z,70.40
2022-08-04T01:10:50.160Z,71.00
2022-08-04T01:13:59.508Z,70.70
2022-08-04T01:16:27.685Z,71.10
2022-08-04T01:19:08.361Z,70.50
2022-08-04T01:22:12.108Z,71.10
2022-08-04T01:25:04.538Z,71.00
2022-08-04T01:28:34.380Z,71.20
2022-08-04T01:31:26.445Z,71.50
2022-08-04T01:34:04.296Z,71.20
2022-08-04T01:36:35.871Z,71.20
2022-08-04T01:39:24.038Z,71.20
2022-08-04T01:41:57.921Z,71.30
2022-08-04T01:44:29.734Z,71.50
2022-08-04T01:46:56.792Z,72.40
2022-08-04T01:49:39.965Z,71.50
2022-08-04T01:52:10.987Z,71.90
2022-08-04T01:54:41.777Z,72.00
2022-08-04T01:57:38.122Z,72.00
2022-08-04T02:00:01.027Z,72.00
2022-08-04T02:02:28.195Z,71.70
2022-08-04T02:04:56.310Z,72.00
2022-08-04T02:07:53.295Z,72.00
2022-08-04T02:10:42.607Z,72.20
2022-08-04T02:13:33.595Z,72.20
2022-08-04T02:16:11.445Z,72.40
2022-08-04T02:19:20.673Z,72.20
2022-08-04T02:21:58.061Z,72.30
2022-08-04T02:24:28.472Z,72.30
2022-08-04T02:26:57.200Z,72.30
2022-08-04T02:29:35.780Z,72.20
2022-08-04T02:32:07.484Z,72.40
2022-08-04T02:35:01.458Z,73.20
2022-08-04T02:37:32.409Z,73.50
2022-08-04T02:40:02.388Z,73.00
2022-08-04T02:42:30.442Z,73.00
2022-08-04T02:45:01.532Z,73.20
2022-08-04T02:48:08.199Z,73.50
2022-08-04T02:50:25.389Z,73.20
2022-08-04T02:52:58.927Z,73.40
2022-08-04T02:55:29.278Z,73.30
2022-08-04T02:57:59.411Z,73.80
2022-08-04T03:00:26.789Z,74.20
2022-08-04T03:03:15.293Z,74.30
2022-08-04T03:06:10.900Z,74.40
2022-08-04T03:09:35.078Z,74.60
2022-08-04T03:12:16.390Z,74.40
2022-08-04T03:15:13.876Z,74.10
2022-08-04T03:18:28.268Z,74.30
2022-08-04T03:21:34.675Z,74.50
2022-08-04T03:24:54.569Z,74.20
2022-08-04T03:28:17.019Z,74.20
2022-08-04T03:30:57.635Z,74.10
2022-08-04T03:33:46.554Z,74.10
2022-08-04T03:37:08.941Z,75.00
2022-08-04T03:40:19.889Z,74.90
2022-08-04T03:43:58.977Z,74.70
2022-08-04T03:46:47.327Z,74.60
2022-08-04T03:49:40.121Z,74.80
2022-08-04T03:53:13.811Z,74.90
2022-08-04T03:55:55.929Z,75.60
2022-08-04T03:59:07.712Z,75.70
2022-08-04T04:02:06.747Z,76.30
2022-08-04T04:04:51.846Z,76.30
2022-08-04T04:08:03.926Z,76.10
2022-08-04T04:11:56.685Z,76.30
2022-08-04T04:14:50.059Z,76.20
2022-08-04T04:18:08.736Z,76.20
2022-08-04T04:21:22.065Z,76.40
2022-08-04T04:24:01.747Z,76.40
2022-08-04T04:26:56.798Z,76.00
2022-08-04T04:29:58.172Z,75.90
2022-08-04T04:32:45.886Z,75.90
2022-08-04T04:35:39.103Z,75.60
2022-08-04T04:38:43.859Z,75.70
2022-08-04T04:41:46.052Z,76.00
2022-08-04T04:44:42.915Z,75.90
2022-08-04T04:48:08.244Z,76.50
2022-08-04T04:51:12.323Z,76.90
2022-08-04T04:54:19.038Z,76.40
2022-08-04T04:56:51.715Z,76.50
2022-08-04T04:59:23.191Z,76.30
2022-08-04T05:02:36.640Z,76.10
2022-08-04T05:05:53.746Z,75.90
2022-08-04T05:08:53.833Z,75.50
2022-08-04T05:14:30.835Z,75.40
2022-08-04T05:15:00.174Z,75.30
2022-08-04T05:17:35.740Z,75.20
2022-08-04T05:20:13.891Z,75.20
2022-08-04T05:22:52.729Z,75.30
2022-08-04T05:25:23.188Z,75.30
2022-08-04T05:28:15.913Z,75.30
2022-08-04T05:30:51.411Z,75.40
2022-08-04T05:33:41.125Z,75.20
2022-08-04T05:36:39.492Z,75.20
2022-08-04T05:39:13.303Z,75.20
2022-08-04T05:41:45.276Z,75.20
2022-08-04T05:44:15.594Z,75.20
2022-08-04T05:46:53.935Z,75.10
2022-08-04T05:49:23.949Z,75.10
2022-08-04T05:51:52.351Z,75.00
2022-08-04T05:54:22.208Z,74.80
2022-08-04T05:56:50.046Z,74.70
2022-08-04T05:59:19.872Z,74.40
2022-08-04T06:01:55.635Z,74.10
2022-08-04T06:04:39.885Z,73.90
2022-08-04T06:07:07.995Z,72.80
2022-08-04T06:09:35.197Z,72.90
2022-08-04T06:12:10.256Z,72.50
2022-08-04T06:14:42.502Z,72.20
2022-08-04T06:17:18.436Z,73.10
2022-08-04T06:20:18.962Z,72.10
2022-08-04T06:22:59.080Z,71.60
2022-08-04T06:25:31.651Z,71.10
2022-08-04T06:28:00.165Z,71.40
2022-08-04T06:30:28.571Z,71.20
2022-08-04T06:33:03.622Z,71.10
2022-08-04T06:35:33.322Z,70.50
2022-08-04T06:38:01.863Z,70.10
2022-08-04T06:40:33.485Z,70.10
2022-08-04T06:43:06.950Z,69.70
2022-08-04T06:45:37.363Z,68.70
2022-08-04T06:48:06.679Z,68.00
2022-08-04T06:51:31.859Z,67.00
2022-08-04T06:53:25.868Z,65.70
2022-08-04T06:55:53.421Z,64.60
2022-08-04T06:58:22.025Z,64.30
2022-08-04T07:00:50.892Z,63.20
2022-08-04T07:03:19.206Z,62.30
2022-08-04T07:05:51.461Z,61.10
2022-08-04T07:08:19.313Z,60.20
2022-08-04T07:10:46.656Z,59.60
2022-08-04T07:13:14.436Z,59.60
2022-08-04T07:15:45.163Z,59.50
2022-08-04T07:18:12.167Z,57.50
2022-08-04T07:20:47.135Z,57.30
2022-08-04T07:23:19.802Z,55.70
2022-08-04T07:26:00.210Z,56.20
2022-08-04T07:28:40.663Z,55.40
2022-08-04T07:31:33.874Z,54.90
2022-08-04T07:34:20.800Z,54.60
2022-08-04T07:36:59.368Z,53.30
2022-08-04T07:39:31.335Z,54.00
2022-08-04T07:42:02.317Z,53.00
2022-08-04T07:44:31.940Z,52.50
2022-08-04T07:47:00.472Z,52.20
2022-08-04T07:49:54.895Z,50.90
2022-08-04T07:52:15.652Z,50.70
2022-08-04T07:54:43.620Z,50.40
2022-08-04T07:57:20.726Z,50.50
2022-08-04T07:59:57.533Z,50.10
2022-08-04T08:02:24.919Z,48.10
2022-08-04T08:04:52.922Z,48.00
2022-08-04T08:07:20.808Z,47.30
2022-08-04T08:09:48.123Z,46.70
2022-08-04T08:12:38.044Z,46.70
2022-08-04T08:15:03.797Z,45.10
2022-08-04T08:17:30.709Z,44.00
2022-08-04T08:19:57.683Z,43.90
2022-08-04T08:22:25.028Z,43.40
2022-08-04T08:24:52.421Z,43.00
2022-08-04T08:27:19.641Z,41.20
2022-08-04T08:29:47.849Z,40.10
2022-08-04T08:32:16.041Z,41.10
2022-08-04T08:34:45.552Z,41.20
2022-08-04T08:37:30.309Z,40.30
2022-08-04T08:40:41.166Z,40.90
2022-08-04T08:44:05.868Z,40.00
2022-08-04T08:46:49.649Z,41.20
2022-08-04T08:50:15.713Z,40.20
2022-08-04T08:53:40.112Z,40.20
2022-08-04T08:56:32.134Z,40.70
2022-08-04T08:59:54.166Z,40.80
2022-08-04T09:03:04.838Z,40.40
2022-08-04T09:05:38.363Z,41.00
2022-08-04T09:08:37.344Z,39.60
2022-08-04T09:11:14.551Z,40.20
2022-08-04T09:13:56.531Z,38.90
2022-08-04T09:16:42.875Z,39.20
2022-08-04T09:19:38.228Z,39.90
2022-08-04T09:22:20.897Z,39.40
2022-08-04T09:25:21.055Z,38.50
2022-08-04T09:28:05.705Z,39.00
2022-08-04T09:30:51.339Z,38.90
2022-08-04T09:33:44.446Z,38.10
2022-08-04T09:36:36.220Z,38.40
2022-08-04T09:39:28.094Z,38.30
2022-08-04T09:42:36.002Z,38.10
2022-08-04T09:45:26.083Z,37.70
2022-08-04T09:48:10.841Z,37.80
2022-08-04T09:50:50.030Z,36.80
2022-08-04T09:53:54.427Z,36.30
2022-08-04T09:56:43.099Z,36.40
2022-08-04T09:59:19.326Z,34.90
2022-08-04T10:01:59.786Z,35.70
2022-08-04T10:04:31.414Z,35.40
2022-08-04T10:07:27.142Z,35.10
2022-08-04T10:10:20.227Z,35.80
2022-08-04T10:12:55.782Z,34.60
2022-08-04T10:15:53.331Z,35.30
2022-08-04T10:19:12.017Z,34.70
2022-08-04T10:22:30.566Z,34.10
2022-08-04T10:25:37.700Z,34.90
2022-08-04T10:28:21.907Z,34.70
2022-08-04T10:30:59.315Z,34.70
2022-08-04T10:33:38.438Z,34.70
2022-08-04T10:36:10.568Z,34.50
2022-08-04T10:38:57.991Z,34.70
2022-08-04T10:41:56.523Z,34.50
2022-08-04T10:45:12.215Z,33.70
2022-08-04T10:47:53.302Z,33.00
2022-08-04T10:50:24.337Z,32.90
2022-08-04T10:53:14.005Z,32.90
2022-08-04T10:56:06.138Z,32.70
2022-08-04T10:58:47.836Z,32.90
2022-08-04T11:02:00.679Z,32.50
2022-08-04T11:04:48.979Z,32.70
2022-08-04T11:07:17.862Z,32.10
2022-08-04T11:09:45.954Z,32.30
2022-08-04T11:12:25.924Z,32.00
2022-08-04T11:15:09.496Z,31.70
2022-08-04T11:17:41.989Z,32.40
2022-08-04T11:20:37.103Z,31.50
2022-08-04T11:23:11.306Z,31.70
2022-08-04T11:25:58.298Z,31.40
2022-08-04T11:29:27.041Z,31.40
2022-08-04T11:31:59.233Z,30.40
2022-08-04T11:34:28.476Z,30.90
2022-08-04T11:37:22.557Z,31.40
2022-08-04T11:39:57.652Z,31.40
2022-08-04T11:42:48.269Z,31.80
2022-08-04T11:45:29.094Z,31.00
2022-08-04T11:48:03.288Z,31.20
2022-08-04T11:50:51.701Z,31.30
2022-08-04T11:53:26.252Z,31.20
2022-08-04T11:56:07.563Z,31.00
2022-08-04T11:58:37.658Z,30.80
2022-08-04T12:01:48.637Z,30.80
2022-08-04T12:04:47.615Z,30.20
2022-08-04T12:07:41.034Z,30.00
2022-08-04T12:10:45.869Z,30.50
2022-08-04T12:13:28.032Z,30.40
2022-08-04T12:16:17.142Z,30.20
2022-08-04T12:18:57.573Z,30.00
2022-08-04T12:21:34.559Z,30.20
2022-08-04T12:24:19.005Z,30.60
2022-08-04T12:26:54.181Z,29.90
2022-08-04T12:29:23.865Z,30.00
2022-08-04T12:32:24.264Z,30.00
2022-08-04T12:35:21.976Z,30.20
2022-08-04T12:38:10.916Z,29.90
2022-08-04T12:40:55.482Z,30.10
2022-08-04T12:43:44.683Z,30.00
2022-08-04T12:46:20.740Z,29.50
2022-08-04T12:48:49.547Z,29.70
2022-08-04T12:52:05.731Z,29.80
2022-08-04T12:54:08.353Z,29.60
2022-08-04T12:56:36.722Z,30.00
2022-08-04T12:59:12.765Z,29.70
2022-08-04T13:02:08.770Z,29.40
2022-08-04T13:04:36.453Z,30.00
2022-08-04T13:07:14.400Z,29.50
2022-08-04T13:09:42.995Z,29.20
2022-08-04T13:12:23.876Z,29.20
2022-08-04T13:15:10.090Z,29.20
2022-08-04T13:17:59.930Z,30.00
2022-08-04T13:20:38.970Z,29.20
2022-08-04T13:23:11.856Z,29.50
2022-08-04T13:26:42.631Z,29.20
2022-08-04T13:28:43.637Z,29.10
2022-08-04T13:31:19.884Z,28.80
2022-08-04T13:34:02.882Z,29.20
2022-08-04T13:36:30.957Z,28.40
2022-08-04T13:39:08.692Z,28.70
2022-08-04T13:41:41.062Z,28.50
2022-08-04T13:44:18.949Z,28.70
2022-08-04T13:46:52.531Z,28.40
2022-08-04T13:49:37.490Z,28.50
2022-08-04T13:52:10.722Z,28.50
2022-08-04T13:54:45.442Z,28.70
2022-08-04T13:57:23.713Z,28.90
2022-08-04T14:00:08.277Z,29.00
2022-08-04T14:02:45.531Z,29.20
2022-08-04T14:05:32.411Z,29.00
2022-08-04T14:08:17.334Z,29.00
2022-08-04T14:10:55.251Z,28.80
2022-08-04T14:13:41.137Z,29.10
2022-08-04T14:16:21.293Z,28.30
2022-08-04T14:18:58.149Z,28.40
2022-08-04T14:21:25.078Z,28.80
2022-08-04T14:23:55.239Z,29.10
2022-08-04T14:26:32.531Z,29.00
2022-08-04T14:29:26.316Z,29.40
2022-08-04T14:32:03.136Z,29.30
2022-08-04T14:34:31.356Z,29.60
2022-08-04T14:37:16.517Z,29.50
2022-08-04T14:40:17.680Z,29.20
2022-08-04T14:42:54.409Z,29.30
2022-08-04T14:45:39.465Z,29.20
2022-08-04T14:48:22.618Z,29.90
2022-08-04T14:50:50.862Z,29.80
2022-08-04T14:53:29.490Z,29.50
2022-08-04T14:56:00.057Z,29.60
2022-08-04T14:58:39.424Z,29.20
2022-08-04T15:01:12.940Z,29.00
2022-08-04T15:03:50.653Z,29.20
2022-08-04T15:06:28.791Z,29.30
2022-08-04T15:09:00.118Z,29.40
2022-08-04T15:11:28.002Z,29.20
2022-08-04T15:13:57.459Z,29.20
2022-08-04T15:16:27.724Z,29.40
2022-08-04T15:18:56.963Z,29.00
2022-08-04T15:21:28.971Z,29.30
2022-08-04T15:23:59.425Z,29.20
2022-08-04T15:26:34.395Z,29.20
2022-08-04T15:29:16.888Z,29.30
2022-08-04T15:32:08.542Z,29.20
2022-08-04T15:34:47.122Z,29.50
2022-08-04T15:37:25.847Z,29.10
2022-08-04T15:40:13.595Z,29.50
2022-08-04T15:43:00.524Z,29.60
2022-08-04T15:46:02.951Z,30.00
2022-08-04T15:48:22.471Z,30.10
2022-08-04T15:50:58.506Z,30.20
2022-08-04T15:54:03.650Z,29.90
2022-08-04T15:56:26.389Z,30.00
2022-08-04T15:58:55.099Z,29.80
2022-08-04T16:01:22.319Z,29.70
2022-08-04T16:03:59.087Z,29.30
2022-08-04T16:06:28.898Z,29.40
2022-08-04T16:09:02.273Z,29.30
2022-08-04T16:11:31.669Z,29.20
2022-08-04T16:13:59.017Z,29.30
2022-08-04T16:16:49.942Z,29.30
2022-08-04T16:19:41.635Z,29.40
2022-08-04T16:22:13.764Z,29.60
2022-08-04T16:24:43.174Z,29.70
2022-08-04T16:27:12.864Z,30.00
2022-08-04T16:29:45.430Z,30.00
2022-08-04T16:32:16.795Z,30.00
2022-08-04T16:35:04.927Z,30.00
2022-08-04T16:37:38.231Z,30.00
2022-08-04T16:40:38.209Z,30.20
2022-08-04T16:43:17.566Z,29.80
2022-08-04T16:45:56.477Z,30.00
2022-08-04T16:48:34.824Z,30.10
2022-08-04T16:51:09.480Z,30.00
2022-08-04T16:53:52.916Z,29.90
2022-08-04T16:56:33.702Z,29.70
2022-08-04T16:59:10.580Z,29.60
2022-08-04T17:01:46.457Z,29.50
2022-08-04T17:04:14.275Z,29.30
2022-08-04T17:06:43.642Z,29.20
2022-08-04T17:09:17.058Z,29.10
2022-08-04T17:11:46.580Z,28.90
2022-08-04T17:14:13.878Z,28.80
2022-08-04T17:16:43.092Z,28.80
2022-08-04T17:19:23.643Z,28.90
2022-08-04T17:22:02.956Z,29.20
2022-08-04T17:24:38.250Z,29.30
2022-08-04T17:29:54.079Z,29.50
2022-08-04T17:32:22.618Z,29.60
2022-08-04T17:34:55.572Z,29.60
2022-08-04T17:37:39.135Z,29.80
2022-08-04T17:40:18.122Z,29.80
2022-08-04T17:44:02.906Z,30.10
2022-08-04T17:49:19.300Z,30.40
2022-08-04T17:52:06.732Z,30.70
2022-08-04T17:54:40.482Z,31.20
2022-08-04T17:57:21.003Z,31.40
2022-08-04T17:59:59.352Z,31.90
2022-08-04T18:02:34.873Z,32.10
2022-08-04T18:05:11.568Z,32.30
2022-08-04T18:08:37.934Z,32.70
2022-08-04T18:10:51.958Z,33.10
2022-08-04T18:13:27.710Z,33.50
2022-08-04T18:16:06.244Z,33.60
2022-08-04T18:18:41.720Z,34.00
2022-08-04T18:21:16.053Z,34.20
2022-08-04T18:23:50.644Z,34.20
2022-08-04T18:26:18.369Z,34.50
2022-08-04T18:28:50.945Z,34.70
2022-08-04T18:31:17.864Z,34.80
2022-08-04T18:36:37.962Z,35.40
2022-08-04T18:39:12.846Z,35.40
2022-08-04T18:42:02.439Z,35.30
2022-08-04T18:44:49.351Z,35.60
2022-08-04T18:47:23.537Z,36.00
2022-08-04T18:50:59.272Z,36.20
2022-08-04T18:52:45.712Z,36.40
2022-08-04T18:58:07.155Z,36.80
2022-08-04T19:00:35.481Z,36.90
2022-08-04T19:03:02.501Z,36.90
2022-08-04T19:08:33.194Z,37.40
2022-08-04T19:11:16.750Z,38.10
2022-08-04T19:13:54.565Z,38.40
2022-08-04T19:16:24.843Z,39.00
2022-08-04T19:18:51.773Z,40.00
2022-08-04T19:21:19.442Z,41.00
2022-08-04T19:24:10.610Z,41.60
2022-08-04T19:26:55.069Z,41.70
2022-08-04T19:29:21.982Z,42.80
2022-08-04T19:31:49.233Z,43.30
2022-08-04T19:34:34.693Z,43.60
2022-08-04T19:37:02.039Z,44.20
2022-08-04T19:39:31.622Z,45.30
2022-08-04T19:42:06.176Z,45.60
2022-08-04T19:44:33.836Z,46.10
2022-08-04T19:47:02.382Z,46.40
2022-08-04T19:50:03.815Z,47.50
2022-08-04T19:52:35.740Z,47.90
2022-08-04T19:55:10.377Z,48.10
2022-08-04T19:57:44.721Z,48.70
2022-08-04T20:00:15.248Z,49.50
2022-08-04T20:02:42.331Z,50.60
2022-08-04T20:05:09.728Z,51.20
2022-08-04T20:07:36.919Z,51.60
2022-08-04T20:10:06.907Z,52.60
2022-08-04T20:12:34.821Z,53.20
2022-08-04T20:18:07.862Z,54.90
2022-08-04T20:20:43.578Z,55.50
2022-08-04T20:23:10.728Z,55.70
2022-08-04T20:25:38.930Z,56.30
2022-08-04T20:28:36.536Z,56.80
2022-08-04T20:30:57.793Z,57.20
2022-08-04T20:33:24.713Z,57.40
2022-08-04T20:36:05.012Z,58.20
2022-08-04T20:38:33.405Z,57.60
2022-08-04T20:41:01.854Z,58.60
2022-08-04T20:43:31.219Z,59.80
2022-08-04T20:45:59.332Z,58.90
2022-08-04T20:48:33.652Z,59.30
2022-08-04T20:51:00.907Z,59.70
2022-08-04T20:53:32.467Z,59.40
2022-08-04T20:56:18.911Z,59.50
2022-08-04T20:58:46.319Z,59.50
2022-08-04T21:01:14.624Z,60.00
2022-08-04T21:04:01.017Z,60.30
2022-08-04T21:06:28.083Z,60.80
2022-08-04T21:08:57.183Z,60.90
2022-08-04T21:11:24.445Z,60.30
2022-08-04T21:14:00.361Z,60.40
2022-08-04T21:16:54.138Z,60.50
2022-08-04T21:19:14.273Z,60.80
2022-08-04T21:21:42.378Z,62.00
2022-08-04T21:24:09.993Z,62.80
2022-08-04T21:26:42.643Z,63.60
2022-08-04T21:29:10.169Z,65.60
2022-08-04T21:31:50.076Z,65.50
2022-08-04T21:34:37.874Z,65.60
2022-08-04T21:37:05.077Z,65.90
2022-08-04T21:39:32.652Z,66.50
2022-08-04T21:44:46.678Z,67.70
2022-08-04T21:50:02.227Z,67.30
2022-08-04T21:52:29.838Z,67.90
2022-08-04T21:54:57.650Z,68.40
2022-08-04T21:57:25.172Z,68.20
2022-08-04T21:59:52.738Z,68.70
2022-08-04T22:02:19.801Z,71.50
2022-08-04T22:04:48.492Z,71.60
2022-08-04T22:07:16.416Z,71.40
2022-08-04T22:10:00.068Z,71.70
2022-08-04T22:12:27.383Z,71.70
2022-08-04T22:14:59.449Z,71.50
2022-08-04T22:17:35.180Z,72.60
2022-08-04T22:20:04.417Z,72.60
2022-08-04T22:22:36.104Z,73.00
2022-08-04T22:25:13.355Z,73.70
2022-08-04T22:28:00.868Z,75.50
2022-08-04T22:30:32.830Z,76.10
2022-08-04T22:33:00.585Z,75.20
2022-08-04T22:35:42.975Z,76.40
2022-08-04T22:38:24.365Z,76.40
2022-08-04T22:41:02.560Z,75.40
2022-08-04T22:43:33.330Z,76.80
2022-08-04T22:46:05.015Z,76.10
2022-08-04T22:48:37.500Z,75.70
2022-08-04T22:51:07.252Z,76.00
2022-08-04T22:53:35.939Z,76.90
2022-08-04T22:56:10.241Z,77.60
2022-08-04T22:58:51.269Z,79.50
2022-08-04T23:01:18.632Z,79.50
2022-08-04T23:03:55.282Z,79.20
2022-08-04T23:06:25.396Z,80.60
2022-08-04T23:08:52.872Z,81.40
2022-08-04T23:11:20.406Z,81.40
2022-08-04T23:13:49.150Z,81.10
2022-08-04T23:16:17.123Z,81.40
2022-08-04T23:18:45.202Z,81.90
2022-08-04T23:21:15.408Z,81.50
2022-08-04T23:23:45.709Z,83.10
2022-08-04T23:26:27.946Z,82.70
2022-08-04T23:28:57.253Z,82.20
2022-08-04T23:31:25.169Z,82.40
2022-08-04T23:34:08.422Z,82.50
2022-08-04T23:36:35.482Z,83.10
2022-08-04T23:39:06.203Z,83.30
2022-08-04T23:41:53.915Z,84.00
2022-08-04T23:44:24.798Z,84.10
2022-08-04T23:47:01.328Z,84.10
2022-08-04T23:49:43.336Z,85.30
2022-08-04T23:52:28.251Z,84.60
2022-08-04T23:55:01.018Z,84.70
2022-08-04T23:57:31.448Z,84.40
